HAL932 PHKO-PHNL
Flight info
| Callsign | HAL932 |
|---|---|
| Flight time | 0h 30m |
| Altitude | 16000 |
| Route | KOA V20 HOKLA JULLE5 |
| Aircraft | A332/H-SDE3GHIJ2J3J5M1RVWXY/LB2D1 |
Departure
| Time | 2026-05-08 03:29 |
|---|---|
| Airport | Ellison Onizuka Kona International Airport at Keāhole (PHKO) |
Arrival
| Time | 2026-05-08 03:59 |
|---|---|
| Airport | Daniel K. Inouye International Airport (PHNL) |
| Time | Latitude | Longitude | Altitude | Speed | Heading |
|---|---|---|---|---|---|
| 2026-05-08 03:15 | 19.73542 | -156.04241 | 50 ft | 0 kts | 95° |
| 2026-05-08 03:20 | 19.73542 | -156.04242 | 50 ft | 0 kts | 95° |
| 2026-05-08 03:21 | 19.73543 | -156.04254 | 51 ft | 3 kts | 95° |
| 2026-05-08 03:21 | 19.73545 | -156.04275 | 51 ft | 3 kts | 93° |
| 2026-05-08 03:21 | 19.73545 | -156.04297 | 49 ft | 3 kts | 89° |
| 2026-05-08 03:21 | 19.73544 | -156.04318 | 49 ft | 3 kts | 75° |
| 2026-05-08 03:22 | 19.73537 | -156.04335 | 48 ft | 3 kts | 33° |
| 2026-05-08 03:22 | 19.73530 | -156.04339 | 46 ft | 0 kts | 5° |
| 2026-05-08 03:24 | 19.73553 | -156.04337 | 48 ft | 9 kts | 5° |
| 2026-05-08 03:24 | 19.73646 | -156.04329 | 48 ft | 15 kts | 4° |
| 2026-05-08 03:25 | 19.73762 | -156.04320 | 47 ft | 18 kts | 5° |
| 2026-05-08 03:25 | 19.73894 | -156.04308 | 46 ft | 20 kts | 5° |
| 2026-05-08 03:25 | 19.74034 | -156.04295 | 47 ft | 21 kts | 5° |
| 2026-05-08 03:25 | 19.74183 | -156.04282 | 47 ft | 22 kts | 4° |
| 2026-05-08 03:26 | 19.74334 | -156.04268 | 50 ft | 21 kts | 5° |
| 2026-05-08 03:26 | 19.74481 | -156.04255 | 50 ft | 21 kts | 4° |
| 2026-05-08 03:26 | 19.74633 | -156.04242 | 49 ft | 23 kts | 4° |
| 2026-05-08 03:26 | 19.74792 | -156.04227 | 51 ft | 23 kts | 5° |
| 2026-05-08 03:27 | 19.74953 | -156.04212 | 51 ft | 24 kts | 5° |
| 2026-05-08 03:27 | 19.75131 | -156.04196 | 49 ft | 27 kts | 4° |
| 2026-05-08 03:27 | 19.75273 | -156.04184 | 44 ft | 13 kts | 4° |
| 2026-05-08 03:27 | 19.75361 | -156.04211 | 49 ft | 15 kts | 311° |
| 2026-05-08 03:28 | 19.75376 | -156.04323 | 46 ft | 17 kts | 269° |
| 2026-05-08 03:28 | 19.75332 | -156.04433 | 46 ft | 20 kts | 202° |
| 2026-05-08 03:28 | 19.75068 | -156.04461 | 49 ft | 71 kts | 185° |
| 2026-05-08 03:28 | 19.74300 | -156.04530 | 49 ft | 150 kts | 185° |
| 2026-05-08 03:29 | 19.73083 | -156.04634 | 621 ft | 186 kts | 186° |
| 2026-05-08 03:29 | 19.71849 | -156.04806 | 2015 ft | 180 kts | 200° |
| 2026-05-08 03:29 | 19.70839 | -156.05611 | 2808 ft | 188 kts | 236° |
| 2026-05-08 03:29 | 19.70474 | -156.06990 | 3232 ft | 209 kts | 275° |
| 2026-05-08 03:30 | 19.72025 | -156.09988 | 4002 ft | 257 kts | 308° |
| 2026-05-08 03:30 | 19.74229 | -156.13124 | 5476 ft | 271 kts | 306° |
| 2026-05-08 03:31 | 19.76170 | -156.15911 | 6810 ft | 280 kts | 306° |
| 2026-05-08 03:31 | 19.78769 | -156.19634 | 8647 ft | 289 kts | 306° |
| 2026-05-08 03:32 | 19.79976 | -156.21361 | 9524 ft | 291 kts | 304° |
| 2026-05-08 03:32 | 19.81190 | -156.23096 | 10332 ft | 296 kts | 305° |
| 2026-05-08 03:32 | 19.82456 | -156.24912 | 10678 ft | 316 kts | 304° |
| 2026-05-08 03:32 | 19.83808 | -156.26854 | 10982 ft | 336 kts | 305° |
| 2026-05-08 03:33 | 19.85241 | -156.28906 | 11252 ft | 355 kts | 305° |
| 2026-05-08 03:33 | 19.86727 | -156.31038 | 11513 ft | 372 kts | 305° |
| 2026-05-08 03:33 | 19.88298 | -156.33292 | 11852 ft | 385 kts | 305° |
| 2026-05-08 03:33 | 19.89913 | -156.35606 | 12360 ft | 392 kts | 306° |
| 2026-05-08 03:34 | 19.91548 | -156.37948 | 12958 ft | 396 kts | 305° |
| 2026-05-08 03:34 | 19.93202 | -156.40318 | 13557 ft | 400 kts | 306° |
| 2026-05-08 03:34 | 19.94869 | -156.42710 | 14087 ft | 405 kts | 305° |
| 2026-05-08 03:34 | 19.96552 | -156.45127 | 14651 ft | 407 kts | 305° |
| 2026-05-08 03:35 | 19.98238 | -156.47550 | 15216 ft | 409 kts | 305° |
| 2026-05-08 03:35 | 19.99933 | -156.49987 | 15730 ft | 411 kts | 305° |
| 2026-05-08 03:35 | 20.01628 | -156.52425 | 15959 ft | 411 kts | 306° |
| 2026-05-08 03:35 | 20.03218 | -156.54711 | 15998 ft | 413 kts | 305° |
| 2026-05-08 03:36 | 20.04928 | -156.57171 | 15999 ft | 414 kts | 305° |
| 2026-05-08 03:36 | 20.06638 | -156.59633 | 15997 ft | 414 kts | 305° |
| 2026-05-08 03:36 | 20.08350 | -156.62099 | 15998 ft | 413 kts | 306° |
| 2026-05-08 03:36 | 20.10058 | -156.64562 | 15997 ft | 413 kts | 306° |
| 2026-05-08 03:37 | 20.11770 | -156.67029 | 15997 ft | 414 kts | 305° |
| 2026-05-08 03:37 | 20.13481 | -156.69496 | 15997 ft | 414 kts | 306° |
| 2026-05-08 03:37 | 20.15168 | -156.71930 | 15997 ft | 413 kts | 305° |
| 2026-05-08 03:37 | 20.16879 | -156.74401 | 15997 ft | 413 kts | 305° |
| 2026-05-08 03:38 | 20.18585 | -156.76864 | 16006 ft | 413 kts | 305° |
| 2026-05-08 03:38 | 20.20289 | -156.79326 | 16001 ft | 414 kts | 306° |
| 2026-05-08 03:38 | 20.22012 | -156.81789 | 16002 ft | 414 kts | 307° |
| 2026-05-08 03:38 | 20.23961 | -156.84051 | 16003 ft | 415 kts | 314° |
| 2026-05-08 03:39 | 20.26041 | -156.86184 | 16003 ft | 414 kts | 316° |
| 2026-05-08 03:39 | 20.28142 | -156.88293 | 16003 ft | 415 kts | 316° |
| 2026-05-08 03:39 | 20.30217 | -156.90378 | 15998 ft | 415 kts | 316° |
| 2026-05-08 03:39 | 20.32315 | -156.92490 | 15997 ft | 414 kts | 316° |
| 2026-05-08 03:40 | 20.34406 | -156.94600 | 15997 ft | 414 kts | 316° |
| 2026-05-08 03:40 | 20.36496 | -156.96711 | 15997 ft | 414 kts | 315° |
| 2026-05-08 03:40 | 20.38595 | -156.98835 | 15997 ft | 414 kts | 315° |
| 2026-05-08 03:40 | 20.40666 | -157.00930 | 15998 ft | 414 kts | 315° |
| 2026-05-08 03:41 | 20.42757 | -157.03048 | 15994 ft | 414 kts | 315° |
| 2026-05-08 03:41 | 20.44845 | -157.05163 | 15994 ft | 414 kts | 315° |
| 2026-05-08 03:41 | 20.46935 | -157.07281 | 15995 ft | 414 kts | 315° |
| 2026-05-08 03:41 | 20.49024 | -157.09399 | 15997 ft | 414 kts | 315° |
| 2026-05-08 03:42 | 20.51114 | -157.11519 | 15995 ft | 414 kts | 315° |
| 2026-05-08 03:42 | 20.53204 | -157.13641 | 15995 ft | 414 kts | 315° |
| 2026-05-08 03:42 | 20.55270 | -157.15738 | 15997 ft | 414 kts | 316° |
| 2026-05-08 03:42 | 20.57356 | -157.17856 | 15997 ft | 414 kts | 315° |
| 2026-05-08 03:43 | 20.59445 | -157.19979 | 15997 ft | 414 kts | 315° |
| 2026-05-08 03:43 | 20.61529 | -157.22098 | 15999 ft | 414 kts | 315° |
| 2026-05-08 03:43 | 20.63618 | -157.24225 | 15998 ft | 414 kts | 315° |
| 2026-05-08 03:43 | 20.65706 | -157.26351 | 15997 ft | 413 kts | 315° |
| 2026-05-08 03:44 | 20.67781 | -157.28479 | 15998 ft | 413 kts | 315° |
| 2026-05-08 03:44 | 20.69851 | -157.30612 | 15997 ft | 413 kts | 315° |
| 2026-05-08 03:44 | 20.71894 | -157.32719 | 15997 ft | 413 kts | 315° |
| 2026-05-08 03:44 | 20.73937 | -157.34878 | 15996 ft | 412 kts | 311° |
| 2026-05-08 03:45 | 20.75793 | -157.37208 | 16000 ft | 412 kts | 306° |
| 2026-05-08 03:45 | 20.77482 | -157.39686 | 16000 ft | 411 kts | 303° |
| 2026-05-08 03:45 | 20.79011 | -157.42277 | 16002 ft | 412 kts | 300° |
| 2026-05-08 03:45 | 20.80443 | -157.44890 | 16002 ft | 411 kts | 299° |
| 2026-05-08 03:46 | 20.81884 | -157.47533 | 16002 ft | 411 kts | 299° |
| 2026-05-08 03:46 | 20.83367 | -157.50151 | 16003 ft | 411 kts | 302° |
| 2026-05-08 03:46 | 20.84982 | -157.52682 | 16003 ft | 411 kts | 304° |
| 2026-05-08 03:46 | 20.86630 | -157.55182 | 16006 ft | 411 kts | 304° |
| 2026-05-08 03:47 | 20.88286 | -157.57691 | 16005 ft | 412 kts | 304° |
| 2026-05-08 03:47 | 20.89932 | -157.60198 | 15969 ft | 412 kts | 304° |
| 2026-05-08 03:47 | 20.91557 | -157.62656 | 15649 ft | 406 kts | 304° |
| 2026-05-08 03:47 | 20.93174 | -157.65094 | 15202 ft | 397 kts | 304° |
| 2026-05-08 03:48 | 20.94764 | -157.67479 | 14733 ft | 390 kts | 304° |
| 2026-05-08 03:48 | 20.96328 | -157.69824 | 14276 ft | 383 kts | 304° |
| 2026-05-08 03:48 | 20.97862 | -157.72127 | 13823 ft | 377 kts | 304° |
| 2026-05-08 03:48 | 20.99372 | -157.74395 | 13320 ft | 371 kts | 304° |
| 2026-05-08 03:49 | 21.00866 | -157.76619 | 12813 ft | 365 kts | 304° |
| 2026-05-08 03:49 | 21.02347 | -157.78805 | 12311 ft | 361 kts | 304° |
| 2026-05-08 03:49 | 21.03795 | -157.80949 | 11833 ft | 358 kts | 304° |
| 2026-05-08 03:49 | 21.05246 | -157.83109 | 11284 ft | 356 kts | 304° |
| 2026-05-08 03:50 | 21.06687 | -157.85262 | 10783 ft | 354 kts | 304° |
| 2026-05-08 03:50 | 21.08115 | -157.87395 | 10277 ft | 350 kts | 304° |
| 2026-05-08 03:50 | 21.09521 | -157.89491 | 9739 ft | 340 kts | 304° |
| 2026-05-08 03:50 | 21.10886 | -157.91505 | 9199 ft | 327 kts | 304° |
| 2026-05-08 03:51 | 21.12195 | -157.93455 | 8626 ft | 317 kts | 304° |
| 2026-05-08 03:51 | 21.13458 | -157.95353 | 8103 ft | 308 kts | 304° |
| 2026-05-08 03:51 | 21.14677 | -157.97212 | 7573 ft | 302 kts | 304° |
| 2026-05-08 03:51 | 21.15896 | -157.99017 | 7055 ft | 296 kts | 307° |
| 2026-05-08 03:52 | 21.17198 | -158.00705 | 6534 ft | 292 kts | 310° |
| 2026-05-08 03:52 | 21.18491 | -158.02326 | 5988 ft | 288 kts | 310° |
| 2026-05-08 03:52 | 21.19778 | -158.03954 | 5462 ft | 285 kts | 310° |
| 2026-05-08 03:52 | 21.21044 | -158.05579 | 4927 ft | 282 kts | 310° |
| 2026-05-08 03:53 | 21.22282 | -158.07188 | 4378 ft | 277 kts | 310° |
| 2026-05-08 03:53 | 21.23474 | -158.08788 | 3832 ft | 272 kts | 310° |
| 2026-05-08 03:53 | 21.24618 | -158.10376 | 3334 ft | 267 kts | 311° |
| 2026-05-08 03:53 | 21.25713 | -158.11922 | 3064 ft | 249 kts | 317° |
| 2026-05-08 03:54 | 21.27047 | -158.12853 | 3050 ft | 215 kts | 347° |
| 2026-05-08 03:54 | 21.28465 | -158.12967 | 3039 ft | 200 kts | 16° |
| 2026-05-08 03:54 | 21.29758 | -158.12475 | 3036 ft | 197 kts | 26° |
| 2026-05-08 03:54 | 21.30974 | -158.11842 | 3044 ft | 197 kts | 28° |
| 2026-05-08 03:55 | 21.32001 | -158.10922 | 2990 ft | 194 kts | 60° |
| 2026-05-08 03:55 | 21.32473 | -158.09591 | 2769 ft | 190 kts | 76° |
| 2026-05-08 03:55 | 21.32557 | -158.08178 | 2529 ft | 190 kts | 88° |
| 2026-05-08 03:55 | 21.32518 | -158.06771 | 2282 ft | 187 kts | 86° |
| 2026-05-08 03:56 | 21.32519 | -158.05395 | 2035 ft | 182 kts | 86° |
| 2026-05-08 03:56 | 21.32524 | -158.04051 | 1782 ft | 178 kts | 85° |
| 2026-05-08 03:56 | 21.32521 | -158.02765 | 1553 ft | 165 kts | 86° |
| 2026-05-08 03:56 | 21.32520 | -158.01614 | 1343 ft | 148 kts | 87° |
| 2026-05-08 03:57 | 21.32519 | -158.00565 | 1165 ft | 135 kts | 85° |
| 2026-05-08 03:57 | 21.32521 | -157.99558 | 996 ft | 136 kts | 83° |
| 2026-05-08 03:57 | 21.32524 | -157.98534 | 815 ft | 138 kts | 84° |
| 2026-05-08 03:57 | 21.32524 | -157.97506 | 626 ft | 137 kts | 84° |
| 2026-05-08 03:58 | 21.32524 | -157.96834 | 507 ft | 135 kts | 84° |
| 2026-05-08 03:58 | 21.32522 | -157.95830 | 291 ft | 131 kts | 84° |
| 2026-05-08 03:58 | 21.32524 | -157.94506 | 110 ft | 133 kts | 86° |
| 2026-05-08 03:58 | 21.32518 | -157.93546 | 32 ft | 120 kts | 86° |
| 2026-05-08 03:59 | 21.32527 | -157.93040 | 28 ft | 80 kts | 90° |
| 2026-05-08 03:59 | 21.32526 | -157.92629 | 28 ft | 44 kts | 90° |
| 2026-05-08 03:59 | 21.32526 | -157.92363 | 28 ft | 21 kts | 90° |
| 2026-05-08 03:59 | 21.32556 | -157.92262 | 27 ft | 13 kts | 28° |
| 2026-05-08 04:00 | 21.32651 | -157.92256 | 28 ft | 14 kts | 0° |
| 2026-05-08 04:00 | 21.32752 | -157.92255 | 28 ft | 13 kts | 359° |
| 2026-05-08 04:00 | 21.32778 | -157.92301 | 28 ft | 9 kts | 268° |
| 2026-05-08 04:00 | 21.32775 | -157.92404 | 28 ft | 16 kts | 269° |
| 2026-05-08 04:01 | 21.32775 | -157.92524 | 23 ft | 14 kts | 270° |
| 2026-05-08 04:01 | 21.32778 | -157.92596 | 27 ft | 6 kts | 292° |
| 2026-05-08 04:01 | 21.32808 | -157.92606 | 28 ft | 5 kts | 359° |
| 2026-05-08 04:01 | 21.32848 | -157.92607 | 28 ft | 6 kts | 359° |
| 2026-05-08 04:02 | 21.32869 | -157.92607 | 28 ft | 1 kts | 360° |
| 2026-05-08 04:02 | 21.32879 | -157.92607 | 28 ft | 1 kts | 360° |
| 2026-05-08 04:02 | 21.32881 | -157.92607 | 28 ft | 0 kts | 360° |